Time;durP1;ratioP1;P1;durP2;ratioP2;P2;SDS_P1;SDS_P2;PMS_P1;PMS_P2;Temp;Humidity;BMP_temperature;BMP_pressure;BME280_temperature;BME280_humidity;BME280_pressure;Samples;Min_cycle;Max_cycle;Signal;HPM_P1;HPM_P2
2019/10/25 00:00:13;;;;;;;5.6;2.7;;;;;;;;;;;;;
2019/10/25 00:02:38;;;;;;;5.9;2.5;;;;;;;;;;;;;
2019/10/25 00:05:03;;;;;;;5.7;2.7;;;;;;;;;;;;;
2019/10/25 00:07:28;;;;;;;6.6;2.3;;;;;;;;;;;;;
2019/10/25 00:09:53;;;;;;;5.6;3.1;;;;;;;;;;;;;
2019/10/25 00:12:18;;;;;;;5.7;2.4;;;;;;;;;;;;;
2019/10/25 00:14:43;;;;;;;4.8;2.8;;;;;;;;;;;;;
2019/10/25 00:17:08;;;;;;;7.7;2.5;;;;;;;;;;;;;
2019/10/25 00:19:34;;;;;;;5.2;2.4;;;;;;;;;;;;;
2019/10/25 00:21:59;;;;;;;4.7;2.4;;;;;;;;;;;;;
2019/10/25 00:24:24;;;;;;;5.5;2.6;;;;;;;;;;;;;
2019/10/25 00:26:49;;;;;;;5.2;2.4;;;;;;;;;;;;;
2019/10/25 00:29:14;;;;;;;5.2;2.2;;;;;;;;;;;;;
2019/10/25 00:31:39;;;;;;;5;2.3;;;;;;;;;;;;;
2019/10/25 00:34:04;;;;;;;3.9;2.3;;;;;;;;;;;;;
2019/10/25 00:36:29;;;;;;;5.3;2.2;;;;;;;;;;;;;
2019/10/25 00:38:55;;;;;;;6;2.4;;;;;;;;;;;;;
2019/10/25 00:41:20;;;;;;;5.3;2.3;;;;;;;;;;;;;
2019/10/25 00:43:45;;;;;;;6;2.3;;;;;;;;;;;;;
2019/10/25 00:46:10;;;;;;;5.6;2.4;;;;;;;;;;;;;
2019/10/25 00:48:35;;;;;;;3.9;2.4;;;;;;;;;;;;;
2019/10/25 00:51:00;;;;;;;3;2;;;;;;;;;;;;;
2019/10/25 00:53:25;;;;;;;6.4;2.6;;;;;;;;;;;;;
2019/10/25 00:55:50;;;;;;;4.7;2.3;;;;;;;;;;;;;
2019/10/25 00:58:15;;;;;;;6.2;2.3;;;;;;;;;;;;;
2019/10/25 01:00:40;;;;;;;4.5;2.6;;;;;;;;;;;;;
2019/10/25 01:03:06;;;;;;;5.2;2.4;;;;;;;;;;;;;
2019/10/25 01:05:31;;;;;;;6.2;2.6;;;;;;;;;;;;;
2019/10/25 01:07:56;;;;;;;4.9;2.8;;;;;;;;;;;;;
2019/10/25 01:10:21;;;;;;;5.3;2.8;;;;;;;;;;;;;
2019/10/25 01:12:46;;;;;;;4.3;2.7;;;;;;;;;;;;;
2019/10/25 01:15:11;;;;;;;6.7;2.9;;;;;;;;;;;;;
2019/10/25 01:17:37;;;;;;;5.1;2.7;;;;;;;;;;;;;
2019/10/25 01:20:02;;;;;;;4.9;2.6;;;;;;;;;;;;;
2019/10/25 01:22:27;;;;;;;5.9;2.6;;;;;;;;;;;;;
2019/10/25 01:24:52;;;;;;;5.1;2.8;;;;;;;;;;;;;
2019/10/25 01:27:17;;;;;;;7.2;2.9;;;;;;;;;;;;;
2019/10/25 01:29:42;;;;;;;7.6;2.9;;;;;;;;;;;;;
2019/10/25 01:32:07;;;;;;;5.2;3;;;;;;;;;;;;;
2019/10/25 01:34:32;;;;;;;6.4;3.2;;;;;;;;;;;;;
2019/10/25 01:36:57;;;;;;;7.2;3.1;;;;;;;;;;;;;
2019/10/25 01:39:22;;;;;;;6.9;3.4;;;;;;;;;;;;;
2019/10/25 01:41:47;;;;;;;7.1;3.3;;;;;;;;;;;;;
2019/10/25 01:44:12;;;;;;;8.1;3.9;;;;;;;;;;;;;
2019/10/25 01:46:37;;;;;;;6.1;3;;;;;;;;;;;;;
2019/10/25 01:49:02;;;;;;;6.6;3.4;;;;;;;;;;;;;
2019/10/25 01:51:28;;;;;;;5.7;3.4;;;;;;;;;;;;;
2019/10/25 01:53:53;;;;;;;5.8;3.3;;;;;;;;;;;;;
2019/10/25 01:56:18;;;;;;;6.2;3.5;;;;;;;;;;;;;
2019/10/25 01:58:43;;;;;;;6;3.2;;;;;;;;;;;;;
2019/10/25 02:01:08;;;;;;;6.9;3.5;;;;;;;;;;;;;
2019/10/25 02:03:33;;;;;;;7.9;3.5;;;;;;;;;;;;;
2019/10/25 02:05:58;;;;;;;6.6;3.3;;;;;;;;;;;;;
2019/10/25 02:08:23;;;;;;;5.2;3.3;;;;;;;;;;;;;
2019/10/25 02:10:48;;;;;;;6.9;3.3;;;;;;;;;;;;;
2019/10/25 02:13:14;;;;;;;7.6;3.5;;;;;;;;;;;;;
2019/10/25 02:15:39;;;;;;;5.6;3.4;;;;;;;;;;;;;
2019/10/25 02:18:04;;;;;;;5.3;3.1;;;;;;;;;;;;;
2019/10/25 02:20:29;;;;;;;6;3.3;;;;;;;;;;;;;
2019/10/25 02:22:54;;;;;;;6.2;3.7;;;;;;;;;;;;;
2019/10/25 02:25:19;;;;;;;8.1;3.7;;;;;;;;;;;;;
2019/10/25 02:27:44;;;;;;;6.8;3.6;;;;;;;;;;;;;
2019/10/25 02:30:09;;;;;;;8.4;3.5;;;;;;;;;;;;;
2019/10/25 02:32:34;;;;;;;6.8;3.4;;;;;;;;;;;;;
2019/10/25 02:34:59;;;;;;;7.6;3.8;;;;;;;;;;;;;
2019/10/25 02:37:25;;;;;;;5.8;3.4;;;;;;;;;;;;;
2019/10/25 02:39:50;;;;;;;5.4;3.5;;;;;;;;;;;;;
2019/10/25 02:42:15;;;;;;;6.2;3.5;;;;;;;;;;;;;
2019/10/25 02:44:40;;;;;;;8;3.7;;;;;;;;;;;;;
2019/10/25 02:47:05;;;;;;;7;3.3;;;;;;;;;;;;;
2019/10/25 02:49:30;;;;;;;5.9;3.5;;;;;;;;;;;;;
2019/10/25 02:51:55;;;;;;;5.8;3.5;;;;;;;;;;;;;
2019/10/25 02:54:20;;;;;;;8.1;3.7;;;;;;;;;;;;;
2019/10/25 02:56:45;;;;;;;6;3.4;;;;;;;;;;;;;
2019/10/25 02:59:10;;;;;;;7.7;3.7;;;;;;;;;;;;;
2019/10/25 03:01:36;;;;;;;8.1;3.7;;;;;;;;;;;;;
2019/10/25 03:04:01;;;;;;;6.9;3.6;;;;;;;;;;;;;
2019/10/25 03:08:51;;;;;;;7.4;3.8;;;;;;;;;;;;;
2019/10/25 03:11:16;;;;;;;7.3;3.6;;;;;;;;;;;;;
2019/10/25 03:13:41;;;;;;;8.1;4;;;;;;;;;;;;;
2019/10/25 03:16:06;;;;;;;6.8;3.5;;;;;;;;;;;;;
2019/10/25 03:18:31;;;;;;;8.2;3.6;;;;;;;;;;;;;
2019/10/25 03:20:56;;;;;;;6.8;3.5;;;;;;;;;;;;;
2019/10/25 03:23:21;;;;;;;7.7;3.7;;;;;;;;;;;;;
2019/10/25 03:25:47;;;;;;;8.3;3.6;;;;;;;;;;;;;
2019/10/25 03:28:15;;;;;;;7.8;4;;;;;;;;;;;;;
2019/10/25 03:33:13;;;;;;;6.3;3.7;;;;;;;;;;;;;
2019/10/25 03:35:44;;;;;;;5.2;3.7;;;;;;;;;;;;;
2019/10/25 03:37:54;;;;;;;7.7;3.6;;;;;;;;;;;;;
2019/10/25 03:40:46;;;;;;;7.6;3.4;;;;;;;;;;;;;
2019/10/25 03:43:11;;;;;;;6;3.5;;;;;;;;;;;;;
2019/10/25 03:45:36;;;;;;;5.9;3.2;;;;;;;;;;;;;
2019/10/25 03:48:01;;;;;;;5.6;3.3;;;;;;;;;;;;;
2019/10/25 03:50:26;;;;;;;7.3;3.5;;;;;;;;;;;;;
2019/10/25 03:52:51;;;;;;;8.8;3.6;;;;;;;;;;;;;
2019/10/25 03:55:16;;;;;;;6;3.7;;;;;;;;;;;;;
2019/10/25 03:57:41;;;;;;;5.7;3.6;;;;;;;;;;;;;
2019/10/25 04:02:28;;;;;;;7.2;4.1;;;;;;;13.28;87.43945;1006.269;;;;
2019/10/25 04:04:53;;;;;;;7.1;3.7;;;;;;;13.26;87.67969;1006.339;;;;
2019/10/25 04:07:18;;;;;;;7.6;3.7;;;;;;;13.37;87.125;1006.472;;;;
2019/10/25 04:09:43;;;;;;;7.3;3.7;;;;;;;13.37;87.00977;1006.472;;;;
2019/10/25 04:12:08;;;;;;;6.7;3.4;;;;;;;13.44;86.62109;1006.514;;;;
2019/10/25 04:14:33;;;;;;;7.7;3.9;;;;;;;13.36;86.93848;1006.568;;;;
2019/10/25 04:16:58;;;;;;;5.8;3.6;;;;;;;13.41;86.9248;1006.605;;;;
2019/10/25 04:19:23;;;;;;;6.4;3.6;;;;;;;13.27;87.3125;1006.596;;;;
2019/10/25 04:21:48;;;;;;;6.5;3.5;;;;;;;13.24;87.58203;1006.563;;;;
2019/10/25 04:24:13;;;;;;;5.5;3.6;;;;;;;13.11;88.21289;1006.595;;;;
2019/10/25 04:26:38;;;;;;;5.5;3.6;;;;;;;13.11;88.27051;1006.648;;;;
2019/10/25 04:29:03;;;;;;;6.8;4;;;;;;;13.13;88.28711;1006.686;;;;
2019/10/25 04:31:29;;;;;;;4.9;3.2;;;;;;;13.15;88.3584;1006.728;;;;
2019/10/25 04:33:54;;;;;;;5.1;3.7;;;;;;;13.15;88.05859;1006.809;;;;
2019/10/25 04:36:19;;;;;;;5.1;3.7;;;;;;;13.1;88.39551;1006.857;;;;
2019/10/25 04:38:44;;;;;;;5.8;3.8;;;;;;;12.98;89.1543;1006.802;;;;
2019/10/25 04:41:09;;;;;;;6.8;3.6;;;;;;;13.05;88.91211;1006.894;;;;
2019/10/25 04:43:34;;;;;;;6.6;3.9;;;;;;;13.11;88.69629;1006.876;;;;
2019/10/25 04:45:59;;;;;;;5.8;3.5;;;;;;;13.29;87.45605;1006.809;;;;
2019/10/25 04:48:24;;;;;;;5.8;3.6;;;;;;;13.33;87.12793;1006.85;;;;
2019/10/25 04:50:50;;;;;;;6.8;3.2;;;;;;;13.28;87.33594;1006.866;;;;
2019/10/25 04:53:15;;;;;;;8.3;3.6;;;;;;;13.28;87.39355;1006.924;;;;
2019/10/25 04:55:40;;;;;;;6.9;3.4;;;;;;;13.31;87.29688;1006.935;;;;
2019/10/25 04:58:05;;;;;;;5.9;3.3;;;;;;;13.33;87.10254;1006.887;;;;
2019/10/25 05:00:30;;;;;;;5.1;3.4;;;;;;;13.37;87.19434;1006.871;;;;
2019/10/25 05:02:55;;;;;;;7.5;3.4;;;;;;;13.56;86.16016;1006.797;;;;
2019/10/25 05:05:20;;;;;;;6.3;3.5;;;;;;;13.58;86.23242;1006.863;;;;
2019/10/25 05:07:45;;;;;;;6.2;4;;;;;;;13.59;86.05176;1006.91;;;;
2019/10/25 05:10:10;;;;;;;6.4;3.6;;;;;;;13.69;85.93164;1006.97;;;;
2019/10/25 05:12:36;;;;;;;7.5;3.6;;;;;;;;;;;;;
2019/10/25 05:15:01;;;;;;;9.2;3.7;;;;;;;;;;;;;
2019/10/25 05:17:26;;;;;;;6.3;3.6;;;;;;;;;;;;;
2019/10/25 05:19:51;;;;;;;5.4;3.6;;;;;;;;;;;;;
2019/10/25 05:22:16;;;;;;;8;4;;;;;;;;;;;;;
2019/10/25 05:24:41;;;;;;;6.9;3.9;;;;;;;;;;;;;
2019/10/25 05:27:06;;;;;;;7.6;3.8;;;;;;;;;;;;;
2019/10/25 05:29:31;;;;;;;5.6;3.3;;;;;;;;;;;;;
2019/10/25 05:31:57;;;;;;;8.4;3.6;;;;;;;;;;;;;
2019/10/25 05:34:22;;;;;;;5.7;3.7;;;;;;;;;;;;;
2019/10/25 05:36:47;;;;;;;7.2;3.8;;;;;;;;;;;;;
2019/10/25 05:39:12;;;;;;;6.8;3.8;;;;;;;;;;;;;
2019/10/25 05:41:37;;;;;;;5.2;3.6;;;;;;;;;;;;;
2019/10/25 05:44:02;;;;;;;6.6;3.7;;;;;;;;;;;;;
2019/10/25 05:46:27;;;;;;;9.2;3.7;;;;;;;;;;;;;
2019/10/25 05:48:52;;;;;;;6.3;3.9;;;;;;;;;;;;;
2019/10/25 05:51:17;;;;;;;5.7;3.6;;;;;;;;;;;;;
2019/10/25 05:53:42;;;;;;;6.4;3.6;;;;;;;;;;;;;
2019/10/25 05:56:08;;;;;;;6.3;3.6;;;;;;;;;;;;;
2019/10/25 05:58:33;;;;;;;7.7;3.7;;;;;;;;;;;;;
2019/10/25 06:00:58;;;;;;;5;3.6;;;;;;;;;;;;;
2019/10/25 06:03:23;;;;;;;6.5;3.5;;;;;;;;;;;;;
2019/10/25 06:05:48;;;;;;;5.6;3.2;;;;;;;;;;;;;
2019/10/25 06:08:13;;;;;;;7.1;3.6;;;;;;;;;;;;;
2019/10/25 06:10:38;;;;;;;5.8;4;;;;;;;;;;;;;
2019/10/25 06:13:03;;;;;;;7.3;3.7;;;;;;;;;;;;;
2019/10/25 06:15:28;;;;;;;8.3;3.5;;;;;;;;;;;;;
2019/10/25 06:17:53;;;;;;;7.7;3.5;;;;;;;;;;;;;
2019/10/25 06:20:19;;;;;;;7.6;3.3;;;;;;;;;;;;;
2019/10/25 06:22:44;;;;;;;8.4;3.6;;;;;;;;;;;;;
2019/10/25 06:25:09;;;;;;;6.5;3.5;;;;;;;;;;;;;
2019/10/25 06:27:34;;;;;;;5.4;3.1;;;;;;;;;;;;;
2019/10/25 06:29:59;;;;;;;7.6;3.7;;;;;;;;;;;;;
2019/10/25 06:32:30;;;;;;;6;3.3;;;;;;;;;;;;;
2019/10/25 06:34:49;;;;;;;5.9;3.5;;;;;;;;;;;;;
2019/10/25 06:37:15;;;;;;;6.6;3.3;;;;;;;;;;;;;
2019/10/25 06:39:40;;;;;;;5.8;3.2;;;;;;;;;;;;;
2019/10/25 06:42:05;;;;;;;7.1;3.5;;;;;;;;;;;;;
2019/10/25 06:44:30;;;;;;;8.3;3.7;;;;;;;;;;;;;
2019/10/25 06:46:55;;;;;;;7.7;3.8;;;;;;;;;;;;;
2019/10/25 06:49:21;;;;;;;7.8;3.2;;;;;;;;;;;;;
2019/10/25 06:51:46;;;;;;;6;3.3;;;;;;;;;;;;;
2019/10/25 06:54:11;;;;;;;9.5;3.5;;;;;;;;;;;;;
2019/10/25 06:56:36;;;;;;;6.9;3.3;;;;;;;;;;;;;
2019/10/25 06:59:01;;;;;;;7.7;3.4;;;;;;;;;;;;;
2019/10/25 07:01:29;;;;;;;7.4;3.9;;;;;;;;;;;;;
2019/10/25 07:03:51;;;;;;;7;3.3;;;;;;;;;;;;;
2019/10/25 07:06:17;;;;;;;6.2;3.1;;;;;;;;;;;;;
2019/10/25 07:08:42;;;;;;;6.5;3.3;;;;;;;;;;;;;
2019/10/25 07:11:07;;;;;;;7.7;3.8;;;;;;;;;;;;;
2019/10/25 07:13:32;;;;;;;7;3.4;;;;;;;;;;;;;
2019/10/25 07:15:57;;;;;;;4.1;2.9;;;;;;;;;;;;;
2019/10/25 07:18:22;;;;;;;6.2;3.2;;;;;;;;;;;;;
2019/10/25 07:20:47;;;;;;;6.1;3.4;;;;;;;;;;;;;
2019/10/25 07:23:12;;;;;;;6.1;3.4;;;;;;;;;;;;;
2019/10/25 07:25:37;;;;;;;5.8;3.5;;;;;;;;;;;;;
2019/10/25 07:28:03;;;;;;;4.7;3;;;;;;;;;;;;;
2019/10/25 07:30:28;;;;;;;7;3.4;;;;;;;;;;;;;
2019/10/25 07:32:53;;;;;;;4.9;3;;;;;;;;;;;;;
2019/10/25 07:35:19;;;;;;;6.6;3.3;;;;;;;;;;;;;
2019/10/25 07:37:44;;;;;;;7.2;3.1;;;;;;;;;;;;;
2019/10/25 07:40:09;;;;;;;6.1;3.1;;;;;;;;;;;;;
2019/10/25 07:42:34;;;;;;;5.4;2.8;;;;;;;;;;;;;
2019/10/25 07:44:59;;;;;;;5.9;3;;;;;;;;;;;;;
2019/10/25 07:47:24;;;;;;;5.1;2.9;;;;;;;;;;;;;
2019/10/25 07:49:49;;;;;;;5;2.8;;;;;;;;;;;;;
2019/10/25 07:54:39;;;;;;;5.7;2.6;;;;;;;;;;;;;
2019/10/25 07:57:05;;;;;;;7.6;3.2;;;;;;;;;;;;;
2019/10/25 07:59:31;;;;;;;7.2;3.2;;;;;;;;;;;;;
2019/10/25 08:01:55;;;;;;;6.1;3;;;;;;;;;;;;;
2019/10/25 08:04:20;;;;;;;4.7;2.6;;;;;;;;;;;;;
2019/10/25 08:06:45;;;;;;;5.9;3.2;;;;;;;;;;;;;
2019/10/25 08:09:10;;;;;;;4.1;2.8;;;;;;;;;;;;;
2019/10/25 08:11:35;;;;;;;4.9;3;;;;;;;;;;;;;
2019/10/25 08:14:00;;;;;;;5.1;2.8;;;;;;;;;;;;;
2019/10/25 08:16:25;;;;;;;4.1;2.5;;;;;;;;;;;;;
2019/10/25 08:18:51;;;;;;;5;2.7;;;;;;;;;;;;;
2019/10/25 08:21:15;;;;;;;5.4;2.5;;;;;;;;;;;;;
2019/10/25 08:23:40;;;;;;;8.2;4.8;;;;;;;;;;;;;
2019/10/25 08:26:06;;;;;;;5.7;2.4;;;;;;;;;;;;;
2019/10/25 08:28:31;;;;;;;6.5;2.5;;;;;;;;;;;;;
2019/10/25 08:30:56;;;;;;;7.9;2.7;;;;;;;;;;;;;
2019/10/25 08:33:21;;;;;;;6.2;2.9;;;;;;;;;;;;;
2019/10/25 08:35:46;;;;;;;4.3;2.5;;;;;;;;;;;;;
2019/10/25 08:38:11;;;;;;;6.3;2.5;;;;;;;;;;;;;
2019/10/25 08:40:36;;;;;;;4.5;2.8;;;;;;;;;;;;;
2019/10/25 08:43:01;;;;;;;4.3;2.3;;;;;;;;;;;;;
2019/10/25 08:45:27;;;;;;;4;2.4;;;;;;;;;;;;;
2019/10/25 08:47:51;;;;;;;5.9;2.8;;;;;;;;;;;;;
2019/10/25 08:50:17;;;;;;;8.5;2.6;;;;;;;;;;;;;
2019/10/25 08:52:42;;;;;;;4.9;2.3;;;;;;;;;;;;;
2019/10/25 08:55:07;;;;;;;6;3.2;;;;;;;;;;;;;
2019/10/25 08:57:32;;;;;;;4.3;2.2;;;;;;;;;;;;;
2019/10/25 08:59:57;;;;;;;4.2;2.2;;;;;;;;;;;;;
2019/10/25 09:02:22;;;;;;;2.6;1.9;;;;;;;;;;;;;
2019/10/25 09:04:47;;;;;;;3.5;2.1;;;;;;;;;;;;;
2019/10/25 09:07:12;;;;;;;4;2;;;;;;;;;;;;;
2019/10/25 09:09:37;;;;;;;5.3;2.2;;;;;;;;;;;;;
2019/10/25 09:12:02;;;;;;;3.7;1.9;;;;;;;;;;;;;
2019/10/25 09:14:27;;;;;;;3.5;1.8;;;;;;;;;;;;;
2019/10/25 09:16:53;;;;;;;5.6;1.7;;;;;;;;;;;;;
2019/10/25 09:19:18;;;;;;;3.1;1.7;;;;;;;;;;;;;
2019/10/25 09:21:43;;;;;;;3.1;1.6;;;;;;;;;;;;;
2019/10/25 09:24:08;;;;;;;5.1;1.8;;;;;;;;;;;;;
2019/10/25 09:26:33;;;;;;;2.3;1.4;;;;;;;;;;;;;
2019/10/25 09:28:58;;;;;;;3.6;1.5;;;;;;;;;;;;;
2019/10/25 09:31:23;;;;;;;4.2;1.6;;;;;;;;;;;;;
2019/10/25 09:33:49;;;;;;;3.5;1.7;;;;;;;;;;;;;
2019/10/25 09:36:14;;;;;;;3.1;1.6;;;;;;;;;;;;;
2019/10/25 09:38:39;;;;;;;3.7;1.6;;;;;;;;;;;;;
2019/10/25 09:41:04;;;;;;;4.3;1.6;;;;;;;;;;;;;
2019/10/25 09:43:29;;;;;;;4.7;1.7;;;;;;;;;;;;;
2019/10/25 09:45:54;;;;;;;4.3;1.6;;;;;;;;;;;;;
2019/10/25 09:48:20;;;;;;;4.3;1.8;;;;;;;;;;;;;
2019/10/25 09:50:45;;;;;;;3.8;1.7;;;;;;;;;;;;;
2019/10/25 09:53:10;;;;;;;3;2;;;;;;;;;;;;;
2019/10/25 09:55:35;;;;;;;4.4;1.9;;;;;;;;;;;;;
2019/10/25 09:58:00;;;;;;;3.2;2;;;;;;;;;;;;;
2019/10/25 10:00:25;;;;;;;3.3;1.8;;;;;;;;;;;;;
2019/10/25 10:02:51;;;;;;;5.4;2;;;;;;;;;;;;;
2019/10/25 10:05:15;;;;;;;5.1;2;;;;;;;;;;;;;
2019/10/25 10:07:40;;;;;;;3.6;2.2;;;;;;;;;;;;;
2019/10/25 10:10:06;;;;;;;3.1;1.8;;;;;;;;;;;;;
2019/10/25 10:12:30;;;;;;;2.8;2;;;;;;;;;;;;;
2019/10/25 10:14:56;;;;;;;5.5;2.2;;;;;;;;;;;;;
2019/10/25 10:17:21;;;;;;;4.6;2.5;;;;;;;;;;;;;
2019/10/25 10:19:46;;;;;;;6.2;2.1;;;;;;;;;;;;;
2019/10/25 10:22:11;;;;;;;6.1;2.8;;;;;;;;;;;;;
2019/10/25 10:24:36;;;;;;;5.9;2.5;;;;;;;;;;;;;
2019/10/25 10:27:01;;;;;;;3.2;1.8;;;;;;;;;;;;;
2019/10/25 10:29:27;;;;;;;3.8;2;;;;;;;;;;;;;
2019/10/25 10:31:51;;;;;;;4.3;1.9;;;;;;;;;;;;;
2019/10/25 10:34:17;;;;;;;3.5;1.8;;;;;;;;;;;;;
2019/10/25 10:36:42;;;;;;;5.7;1.9;;;;;;;;;;;;;
2019/10/25 10:39:07;;;;;;;2.1;1.8;;;;;;;;;;;;;
2019/10/25 10:41:32;;;;;;;3.4;1.9;;;;;;;;;;;;;
2019/10/25 10:43:58;;;;;;;2.8;1.6;;;;;;;;;;;;;
2019/10/25 10:46:23;;;;;;;2.7;1.6;;;;;;;;;;;;;
2019/10/25 10:48:48;;;;;;;2.9;1.5;;;;;;;;;;;;;
2019/10/25 10:51:13;;;;;;;2.3;1.8;;;;;;;;;;;;;
2019/10/25 10:53:38;;;;;;;3.1;1.6;;;;;;;;;;;;;
2019/10/25 10:56:03;;;;;;;2.4;1.5;;;;;;;;;;;;;
2019/10/25 10:58:28;;;;;;;4;1.8;;;;;;;;;;;;;
2019/10/25 11:00:53;;;;;;;3.4;1.7;;;;;;;;;;;;;
2019/10/25 11:03:18;;;;;;;3.3;1.2;;;;;;;;;;;;;
2019/10/25 11:05:44;;;;;;;2.4;1.3;;;;;;;;;;;;;
2019/10/25 11:08:09;;;;;;;2.7;1.4;;;;;;;;;;;;;
2019/10/25 11:10:34;;;;;;;2.7;1.5;;;;;;;;;;;;;
2019/10/25 11:12:59;;;;;;;3.4;1.4;;;;;;;;;;;;;
2019/10/25 11:15:24;;;;;;;2.6;1.4;;;;;;;;;;;;;
2019/10/25 11:17:49;;;;;;;6.3;1.8;;;;;;;;;;;;;
2019/10/25 11:20:14;;;;;;;3;1.2;;;;;;;;;;;;;
2019/10/25 11:22:40;;;;;;;3;1.3;;;;;;;;;;;;;
2019/10/25 11:25:04;;;;;;;2.6;1.2;;;;;;;;;;;;;
2019/10/25 11:27:30;;;;;;;4.4;1.1;;;;;;;;;;;;;
2019/10/25 11:29:55;;;;;;;2.4;1.5;;;;;;;;;;;;;
2019/10/25 11:32:19;;;;;;;2.1;1.1;;;;;;;;;;;;;
2019/10/25 11:34:45;;;;;;;2.1;1.2;;;;;;;;;;;;;
2019/10/25 11:37:10;;;;;;;2.6;1.2;;;;;;;;;;;;;
2019/10/25 11:39:35;;;;;;;1.9;1.1;;;;;;;;;;;;;
2019/10/25 11:42:00;;;;;;;2.5;1.2;;;;;;;;;;;;;
2019/10/25 11:44:25;;;;;;;3.4;1.5;;;;;;;;;;;;;
2019/10/25 11:46:51;;;;;;;2.4;1.3;;;;;;;;;;;;;
2019/10/25 11:49:15;;;;;;;3;1.2;;;;;;;;;;;;;
2019/10/25 11:51:41;;;;;;;1.8;1.4;;;;;;;;;;;;;
2019/10/25 11:54:05;;;;;;;2.4;1.3;;;;;;;;;;;;;
2019/10/25 11:56:31;;;;;;;3.2;1.5;;;;;;;;;;;;;
2019/10/25 11:58:57;;;;;;;2.6;1.2;;;;;;;;;;;;;
2019/10/25 12:01:23;;;;;;;1.9;1.1;;;;;;;;;;;;;
2019/10/25 12:03:47;;;;;;;1.4;1.1;;;;;;;;;;;;;
2019/10/25 12:06:12;;;;;;;1.9;1.2;;;;;;;;;;;;;
2019/10/25 12:08:37;;;;;;;3.1;1.3;;;;;;;;;;;;;
2019/10/25 12:11:02;;;;;;;2.2;1.2;;;;;;;;;;;;;
2019/10/25 12:13:27;;;;;;;1.9;1.4;;;;;;;;;;;;;
2019/10/25 12:15:52;;;;;;;3.3;1.4;;;;;;;;;;;;;
2019/10/25 12:18:17;;;;;;;1.9;1.2;;;;;;;;;;;;;
2019/10/25 12:20:42;;;;;;;2.8;1.5;;;;;;;;;;;;;
2019/10/25 12:23:07;;;;;;;2.4;1.1;;;;;;;;;;;;;
2019/10/25 12:25:33;;;;;;;4.1;1.9;;;;;;;;;;;;;
2019/10/25 12:27:58;;;;;;;2.2;1.3;;;;;;;;;;;;;
2019/10/25 12:30:24;;;;;;;1.9;1.3;;;;;;;;;;;;;
2019/10/25 12:32:48;;;;;;;3.7;1.2;;;;;;;;;;;;;
2019/10/25 12:35:13;;;;;;;2.6;1.4;;;;;;;;;;;;;
2019/10/25 12:37:38;;;;;;;3.3;1.3;;;;;;;;;;;;;
2019/10/25 12:40:03;;;;;;;2;1.1;;;;;;;;;;;;;
2019/10/25 12:42:28;;;;;;;1.3;1.2;;;;;;;;;;;;;
2019/10/25 12:44:53;;;;;;;2.3;1.3;;;;;;;;;;;;;
2019/10/25 12:47:19;;;;;;;6.5;1.3;;;;;;;;;;;;;
2019/10/25 12:49:44;;;;;;;2.7;1.3;;;;;;;;;;;;;
2019/10/25 12:52:09;;;;;;;2.1;1.4;;;;;;;;;;;;;
2019/10/25 12:54:34;;;;;;;2.4;1.3;;;;;;;;;;;;;
2019/10/25 12:56:59;;;;;;;1.9;1;;;;;;;;;;;;;
2019/10/25 12:59:24;;;;;;;2.7;1.1;;;;;;;;;;;;;
2019/10/25 13:01:49;;;;;;;2.2;1.1;;;;;;;;;;;;;
2019/10/25 13:04:14;;;;;;;2.7;1.3;;;;;;;;;;;;;
2019/10/25 13:06:40;;;;;;;2.3;1.3;;;;;;;;;;;;;
2019/10/25 13:09:05;;;;;;;2.3;1.3;;;;;;;;;;;;;
2019/10/25 13:11:30;;;;;;;2;1.2;;;;;;;;;;;;;
2019/10/25 13:13:56;;;;;;;2;1.6;;;;;;;;;;;;;
2019/10/25 13:16:20;;;;;;;2.8;1.7;;;;;;;;;;;;;
2019/10/25 13:18:45;;;;;;;3.7;2.1;;;;;;;;;;;;;
2019/10/25 13:21:11;;;;;;;3;1.3;;;;;;;;;;;;;
2019/10/25 13:23:36;;;;;;;2.3;1.2;;;;;;;;;;;;;
2019/10/25 13:26:01;;;;;;;2.3;1.3;;;;;;;;;;;;;
2019/10/25 13:28:26;;;;;;;2.4;1.4;;;;;;;;;;;;;
2019/10/25 13:33:16;;;;;;;2;1.3;;;;;;;;;;;;;
2019/10/25 13:35:44;;;;;;;2.2;1.3;;;;;;;;;;;;;
2019/10/25 13:38:10;;;;;;;3.7;1.6;;;;;;;;;;;;;
2019/10/25 13:40:34;;;;;;;5.1;1.5;;;;;;;;;;;;;
2019/10/25 13:42:59;;;;;;;2.1;1.4;;;;;;;;;;;;;
2019/10/25 13:45:24;;;;;;;1.9;1.5;;;;;;;;;;;;;
2019/10/25 13:47:49;;;;;;;4.3;1.4;;;;;;;;;;;;;
2019/10/25 13:50:15;;;;;;;2.1;1.2;;;;;;;;;;;;;
2019/10/25 13:52:39;;;;;;;1.7;1.3;;;;;;;;;;;;;
2019/10/25 13:55:04;;;;;;;1.9;1.2;;;;;;;;;;;;;
2019/10/25 13:57:30;;;;;;;2.7;1.3;;;;;;;;;;;;;
2019/10/25 13:59:55;;;;;;;1.4;1.1;;;;;;;;;;;;;
2019/10/25 14:02:20;;;;;;;2.6;1.1;;;;;;;;;;;;;
2019/10/25 14:04:45;;;;;;;3.8;1.3;;;;;;;;;;;;;
2019/10/25 14:07:10;;;;;;;2.6;1.1;;;;;;;;;;;;;
2019/10/25 14:09:35;;;;;;;2.4;1.3;;;;;;;;;;;;;
2019/10/25 14:12:00;;;;;;;6.9;1.8;;;;;;;;;;;;;
2019/10/25 14:14:29;;;;;;;1.8;1.2;;;;;;;;;;;;;
2019/10/25 14:16:50;;;;;;;3.4;1.6;;;;;;;;;;;;;
2019/10/25 14:19:16;;;;;;;2.6;1.3;;;;;;;;;;;;;
2019/10/25 14:21:41;;;;;;;3;1.3;;;;;;;;;;;;;
2019/10/25 14:24:06;;;;;;;2.1;1.3;;;;;;;;;;;;;
2019/10/25 14:26:31;;;;;;;5;1.5;;;;;;;;;;;;;
2019/10/25 14:28:56;;;;;;;1.9;1.4;;;;;;;;;;;;;
2019/10/25 14:31:21;;;;;;;2.3;1.2;;;;;;;;;;;;;
2019/10/25 14:33:46;;;;;;;1.9;1.4;;;;;;;;;;;;;
2019/10/25 14:36:33;;;;;;;1.8;1.3;;;;;;;;;;;;;
2019/10/25 14:39:00;;;;;;;3.7;1.4;;;;;;;;;;;;;
2019/10/25 14:41:02;;;;;;;2.8;1.5;;;;;;;;;;;;;
2019/10/25 14:43:29;;;;;;;2.9;1.4;;;;;;;;;;;;;
2019/10/25 14:45:54;;;;;;;3.7;1.4;;;;;;;;;;;;;
2019/10/25 14:48:19;;;;;;;3.9;1.4;;;;;;;;;;;;;
2019/10/25 14:50:44;;;;;;;3.2;1.3;;;;;;;;;;;;;
2019/10/25 14:53:09;;;;;;;2.5;1.6;;;;;;;;;;;;;
2019/10/25 14:55:35;;;;;;;2.9;1.8;;;;;;;;;;;;;
2019/10/25 14:57:59;;;;;;;2.1;1.6;;;;;;;;;;;;;
2019/10/25 15:00:24;;;;;;;4.2;1.7;;;;;;;;;;;;;
2019/10/25 15:02:53;;;;;;;2.5;1.7;;;;;;;;;;;;;
2019/10/25 15:05:16;;;;;;;6.4;1.8;;;;;;;;;;;;;
2019/10/25 15:07:44;;;;;;;3.1;1.5;;;;;;;;;;;;;
2019/10/25 15:10:05;;;;;;;3.3;1.6;;;;;;;;;;;;;
2019/10/25 15:12:30;;;;;;;2.6;1.4;;;;;;;;;;;;;
2019/10/25 15:14:57;;;;;;;1.9;1.3;;;;;;;;;;;;;
2019/10/25 15:17:20;;;;;;;2.8;1.5;;;;;;;;;;;;;
2019/10/25 15:19:48;;;;;;;5.6;1.5;;;;;;;;;;;;;
2019/10/25 15:22:11;;;;;;;3.5;1.4;;;;;;;;;;;;;
2019/10/25 15:24:36;;;;;;;4.6;1.5;;;;;;;;;;;;;
2019/10/25 15:27:01;;;;;;;2.6;1.8;;;;;;;;;;;;;
2019/10/25 15:29:26;;;;;;;2.8;1.4;;;;;;;;;;;;;
2019/10/25 15:31:53;;;;;;;4.4;1.7;;;;;;;;;;;;;
2019/10/25 15:34:16;;;;;;;2.8;1.7;;;;;;;;;;;;;
2019/10/25 15:36:41;;;;;;;3.7;1.6;;;;;;;;;;;;;
2019/10/25 15:39:07;;;;;;;2.5;1.8;;;;;;;;;;;;;
2019/10/25 15:41:32;;;;;;;2.9;1.5;;;;;;;;;;;;;
2019/10/25 15:43:57;;;;;;;3.7;1.7;;;;;;;;;;;;;
2019/10/25 15:51:13;;;;;;;3;1.5;;;;;;;;;;;;;
2019/10/25 15:53:37;;;;;;;3.8;1.9;;;;;;;;;;;;;
2019/10/25 15:56:02;;;;;;;2.5;1.8;;;;;;;;;;;;;
2019/10/25 15:58:27;;;;;;;3.6;1.8;;;;;;;;;;;;;
2019/10/25 16:00:52;;;;;;;2.6;1.7;;;;;;;;;;;;;
2019/10/25 16:03:17;;;;;;;3;1.7;;;;;;;;;;;;;
2019/10/25 16:05:42;;;;;;;4.4;1.7;;;;;;;;;;;;;
2019/10/25 16:08:08;;;;;;;5;2.2;;;;;;;;;;;;;
2019/10/25 16:10:33;;;;;;;3.2;1.6;;;;;;;;;;;;;
2019/10/25 16:12:58;;;;;;;5.8;1.9;;;;;;;;;;;;;
2019/10/25 16:15:23;;;;;;;3.6;1.6;;;;;;;;;;;;;
2019/10/25 16:17:48;;;;;;;2.8;1.9;;;;;;;;;;;;;
2019/10/25 16:20:13;;;;;;;2.9;1.9;;;;;;;;;;;;;
2019/10/25 16:22:38;;;;;;;7.4;5.7;;;;;;;;;;;;;
2019/10/25 16:25:03;;;;;;;4.9;3;;;;;;;;;;;;;
2019/10/25 16:27:28;;;;;;;8.8;4.5;;;;;;;;;;;;;
2019/10/25 16:29:54;;;;;;;10.6;7.1;;;;;;;;;;;;;
2019/10/25 16:32:19;;;;;;;10.2;6.3;;;;;;;;;;;;;
2019/10/25 16:34:44;;;;;;;9;5.2;;;;;;;;;;;;;
2019/10/25 16:37:09;;;;;;;8.2;5.1;;;;;;;;;;;;;
2019/10/25 16:39:34;;;;;;;8.2;5.3;;;;;;;;;;;;;
2019/10/25 16:41:59;;;;;;;5.8;4.1;;;;;;;;;;;;;
2019/10/25 16:44:24;;;;;;;4.8;3.2;;;;;;;;;;;;;
2019/10/25 16:46:49;;;;;;;6.2;3.5;;;;;;;;;;;;;
2019/10/25 16:49:14;;;;;;;5.9;3;;;;;;;;;;;;;
2019/10/25 16:51:39;;;;;;;6.3;2.9;;;;;;;;;;;;;
2019/10/25 16:54:04;;;;;;;7.1;3.1;;;;;;;;;;;;;
2019/10/25 16:56:29;;;;;;;5.4;3;;;;;;;;;;;;;
2019/10/25 16:58:55;;;;;;;4.5;2.8;;;;;;;;;;;;;
2019/10/25 17:01:19;;;;;;;4.9;2.6;;;;;;;;;;;;;
2019/10/25 17:03:45;;;;;;;4.2;2.5;;;;;;;;;;;;;
2019/10/25 17:06:10;;;;;;;5.2;2.7;;;;;;;;;;;;;
2019/10/25 17:08:35;;;;;;;4.7;2.8;;;;;;;;;;;;;
2019/10/25 17:11:00;;;;;;;3.9;2.8;;;;;;;;;;;;;
2019/10/25 17:13:25;;;;;;;6;2.6;;;;;;;;;;;;;
2019/10/25 17:15:50;;;;;;;3.5;2.6;;;;;;;;;;;;;
2019/10/25 17:18:15;;;;;;;9.4;4.3;;;;;;;;;;;;;
2019/10/25 17:20:40;;;;;;;6.8;4.4;;;;;;;;;;;;;
2019/10/25 17:23:05;;;;;;;9;5.4;;;;;;;;;;;;;
2019/10/25 17:25:31;;;;;;;8.7;5;;;;;;;;;;;;;
2019/10/25 17:27:56;;;;;;;8.5;5;;;;;;;;;;;;;
2019/10/25 17:30:21;;;;;;;7.3;4.6;;;;;;;;;;;;;
2019/10/25 17:32:46;;;;;;;7;4.3;;;;;;;;;;;;;
2019/10/25 17:35:11;;;;;;;7.4;4;;;;;;;;;;;;;
2019/10/25 17:37:36;;;;;;;6.7;4.3;;;;;;;;;;;;;
2019/10/25 17:40:01;;;;;;;7.7;4.5;;;;;;;;;;;;;
2019/10/25 17:42:26;;;;;;;7.7;5.1;;;;;;;;;;;;;
2019/10/25 17:44:51;;;;;;;9.2;4.7;;;;;;;;;;;;;
2019/10/25 17:47:16;;;;;;;9.3;4.9;;;;;;;;;;;;;
2019/10/25 17:49:41;;;;;;;12.9;4.5;;;;;;;;;;;;;
2019/10/25 17:52:06;;;;;;;6;4;;;;;;;;;;;;;
2019/10/25 17:54:31;;;;;;;6.6;4.3;;;;;;;;;;;;;
2019/10/25 17:56:57;;;;;;;6.9;4.3;;;;;;;;;;;;;
2019/10/25 17:59:22;;;;;;;9.7;4.7;;;;;;;;;;;;;
2019/10/25 18:01:47;;;;;;;7.5;4.6;;;;;;;;;;;;;
2019/10/25 18:04:12;;;;;;;7.9;4.8;;;;;;;;;;;;;
2019/10/25 18:06:38;;;;;;;7.6;4.7;;;;;;;;;;;;;
2019/10/25 18:09:03;;;;;;;11.2;4.8;;;;;;;;;;;;;
2019/10/25 18:11:27;;;;;;;8.4;4.5;;;;;;;;;;;;;
2019/10/25 18:13:53;;;;;;;7.3;4.1;;;;;;;;;;;;;
2019/10/25 18:16:18;;;;;;;8.7;4.6;;;;;;;;;;;;;
2019/10/25 18:18:43;;;;;;;7.4;4.3;;;;;;;;;;;;;
2019/10/25 18:21:08;;;;;;;7.6;4.6;;;;;;;;;;;;;
2019/10/25 18:23:33;;;;;;;8;4.2;;;;;;;;;;;;;
2019/10/25 18:25:58;;;;;;;6.3;4.1;;;;;;;;;;;;;
2019/10/25 18:30:48;;;;;;;8;4.3;;;;;;;;;;;;;
2019/10/25 18:33:13;;;;;;;8.7;4.6;;;;;;;;;;;;;
2019/10/25 18:35:38;;;;;;;6.9;4;;;;;;;;;;;;;
2019/10/25 18:38:03;;;;;;;6.8;4.1;;;;;;;;;;;;;
2019/10/25 18:40:28;;;;;;;6.7;4.1;;;;;;;;;;;;;
2019/10/25 18:42:53;;;;;;;7;4.1;;;;;;;;;;;;;
2019/10/25 18:45:19;;;;;;;7;4.2;;;;;;;;;;;;;
2019/10/25 18:47:44;;;;;;;7.1;4;;;;;;;;;;;;;
2019/10/25 18:50:09;;;;;;;7.8;4;;;;;;;;;;;;;
2019/10/25 18:52:34;;;;;;;7;4.1;;;;;;;;;;;;;
2019/10/25 18:54:59;;;;;;;7.6;5.1;;;;;;;;;;;;;
2019/10/25 18:57:24;;;;;;;6.8;4.2;;;;;;;;;;;;;
2019/10/25 18:59:49;;;;;;;8.8;4.6;;;;;;;;;;;;;
2019/10/25 19:02:14;;;;;;;6.7;4.2;;;;;;;;;;;;;
2019/10/25 19:04:40;;;;;;;7;4.4;;;;;;;;;;;;;
2019/10/25 19:07:05;;;;;;;6.6;4.6;;;;;;;;;;;;;
2019/10/25 19:09:30;;;;;;;7.7;4.7;;;;;;;;;;;;;
2019/10/25 19:11:55;;;;;;;7.6;5.1;;;;;;;;;;;;;
2019/10/25 19:14:20;;;;;;;7.9;5.4;;;;;;;;;;;;;
2019/10/25 19:16:45;;;;;;;9.9;5.4;;;;;;;;;;;;;
2019/10/25 19:19:10;;;;;;;7.3;4.8;;;;;;;;;;;;;
2019/10/25 19:21:35;;;;;;;9.5;5.1;;;;;;;;;;;;;
2019/10/25 19:24:00;;;;;;;10.8;4.8;;;;;;;;;;;;;
2019/10/25 19:26:25;;;;;;;6.1;4.9;;;;;;;;;;;;;
2019/10/25 19:28:51;;;;;;;8.9;5.1;;;;;;;;;;;;;
2019/10/25 19:31:16;;;;;;;6.4;4.5;;;;;;;;;;;;;
2019/10/25 19:33:41;;;;;;;8.2;4.7;;;;;;;;;;;;;
2019/10/25 19:36:06;;;;;;;8.2;4.8;;;;;;;;;;;;;
2019/10/25 19:38:31;;;;;;;10.1;4.9;;;;;;;;;;;;;
2019/10/25 19:40:56;;;;;;;8.3;4.7;;;;;;;;;;;;;
2019/10/25 19:43:21;;;;;;;8.6;4.7;;;;;;;;;;;;;
2019/10/25 19:45:46;;;;;;;7.5;4.7;;;;;;;;;;;;;
2019/10/25 19:48:11;;;;;;;6.5;4.7;;;;;;;;;;;;;
2019/10/25 19:50:42;;;;;;;8.3;4.5;;;;;;;;;;;;;
2019/10/25 19:53:02;;;;;;;8.9;5;;;;;;;;;;;;;
2019/10/25 19:55:26;;;;;;;7.8;4.6;;;;;;;;;;;;;
2019/10/25 19:57:52;;;;;;;6.8;4.9;;;;;;;;;;;;;
2019/10/25 20:00:17;;;;;;;8.9;4.9;;;;;;;;;;;;;
2019/10/25 20:02:42;;;;;;;9;4.9;;;;;;;;;;;;;
2019/10/25 20:05:07;;;;;;;6.8;4.7;;;;;;;;;;;;;
2019/10/25 20:07:32;;;;;;;7;4.3;;;;;;;;;;;;;
2019/10/25 20:09:57;;;;;;;5.1;3.8;;;;;;;;;;;;;
2019/10/25 20:12:22;;;;;;;7.5;4.4;;;;;;;;;;;;;
2019/10/25 20:14:48;;;;;;;4.3;3.3;;;;;;;;;;;;;
2019/10/25 20:17:12;;;;;;;4.7;3.3;;;;;;;;;;;;;